createdAt,value
2022-12-08T00:01:38.385Z,22.03
2022-12-08T00:04:05.972Z,32.30
2022-12-08T00:06:52.598Z,21.90
2022-12-08T00:09:24.048Z,25.43
2022-12-08T00:11:52.794Z,23.50
2022-12-08T00:14:20.317Z,19.27
2022-12-08T00:16:47.066Z,20.07
2022-12-08T00:19:14.138Z,24.33
2022-12-08T00:21:41.065Z,21.77
2022-12-08T00:24:08.291Z,19.33
2022-12-08T00:26:35.204Z,25.30
2022-12-08T00:29:02.131Z,27.83
2022-12-08T00:31:29.837Z,27.20
2022-12-08T00:33:56.754Z,19.47
2022-12-08T00:36:23.680Z,24.27
2022-12-08T00:38:50.559Z,19.20
2022-12-08T00:41:39.088Z,25.70
2022-12-08T00:44:06.203Z,26.47
2022-12-08T00:46:33.654Z,24.80
2022-12-08T00:49:00.743Z,25.60
2022-12-08T00:51:27.777Z,24.70
2022-12-08T00:53:54.644Z,29.73
2022-12-08T00:56:21.520Z,27.10
2022-12-08T00:58:48.435Z,32.40
2022-12-08T01:01:15.598Z,23.13
2022-12-08T01:03:43.588Z,22.20
2022-12-08T01:06:10.744Z,15.17
2022-12-08T01:08:37.871Z,23.13
2022-12-08T01:11:05.096Z,28.23
2022-12-08T01:13:31.968Z,25.47
2022-12-08T01:15:58.848Z,24.50
2022-12-08T01:18:26.758Z,21.13
2022-12-08T01:20:54.140Z,24.50
2022-12-08T01:23:21.198Z,20.03
2022-12-08T01:25:48.051Z,36.23
2022-12-08T01:28:14.947Z,27.30
2022-12-08T01:30:41.886Z,24.97
2022-12-08T01:33:08.858Z,27.77
2022-12-08T01:35:35.801Z,25.40
2022-12-08T01:38:03.127Z,19.20
2022-12-08T01:40:30.069Z,24.03
2022-12-08T01:42:56.986Z,22.07
2022-12-08T01:45:27.509Z,23.07
2022-12-08T01:47:57.078Z,31.97
2022-12-08T01:50:24.025Z,26.30
2022-12-08T01:52:54.573Z,28.37
2022-12-08T01:55:24.656Z,37.50
2022-12-08T01:57:55.583Z,29.73
2022-12-08T02:00:23.130Z,30.03
2022-12-08T02:02:54.866Z,22.47
2022-12-08T02:05:24.266Z,20.83
2022-12-08T02:07:51.752Z,21.50
2022-12-08T02:10:20.906Z,23.63
2022-12-08T02:12:49.096Z,23.83
2022-12-08T02:15:16.260Z,34.77
2022-12-08T02:17:57.406Z,29.87
2022-12-08T02:20:41.471Z,23.90
2022-12-08T02:23:18.970Z,22.53
2022-12-08T02:26:21.107Z,21.90
2022-12-08T02:29:18.333Z,22.20
2022-12-08T02:31:57.398Z,25.03
2022-12-08T02:34:31.044Z,28.10
2022-12-08T02:37:06.128Z,27.47
2022-12-08T02:39:41.221Z,31.70
2022-12-08T02:42:16.006Z,26.27
2022-12-08T02:44:48.171Z,24.70
2022-12-08T02:47:18.054Z,29.73
2022-12-08T02:49:45.855Z,26.17
2022-12-08T02:52:44.326Z,21.63
2022-12-08T02:55:19.920Z,25.20
2022-12-08T02:58:04.859Z,25.40
2022-12-08T03:00:43.519Z,20.53
2022-12-08T03:03:18.013Z,18.60
2022-12-08T03:05:57.924Z,20.80
2022-12-08T03:08:32.657Z,19.23
2022-12-08T03:11:06.318Z,21.53
2022-12-08T03:13:38.246Z,17.50
2022-12-08T03:16:07.828Z,19.17
2022-12-08T03:18:44.057Z,20.50
2022-12-08T03:21:13.712Z,27.27
2022-12-08T03:23:42.633Z,20.87
2022-12-08T03:26:14.314Z,17.13
2022-12-08T03:28:41.257Z,25.13
2022-12-08T03:31:11.851Z,21.17
2022-12-08T03:33:43.020Z,19.07
2022-12-08T03:36:11.612Z,17.80
2022-12-08T03:38:38.768Z,22.40
2022-12-08T03:41:17.974Z,15.30
2022-12-08T03:43:44.921Z,17.57
2022-12-08T03:46:11.928Z,17.33
2022-12-08T03:48:38.838Z,14.50
2022-12-08T03:51:06.936Z,18.23
2022-12-08T03:53:34.405Z,17.37
2022-12-08T03:56:01.321Z,17.43
2022-12-08T03:58:30.801Z,19.77
2022-12-08T04:01:01.264Z,19.90
2022-12-08T04:03:28.130Z,18.03
2022-12-08T04:05:55.021Z,22.57
2022-12-08T04:08:24.745Z,20.07
2022-12-08T04:10:52.063Z,28.17
2022-12-08T04:13:18.980Z,28.33
2022-12-08T04:15:46.591Z,23.43
2022-12-08T04:18:13.573Z,23.70
2022-12-08T04:20:40.720Z,26.57
2022-12-08T04:23:07.704Z,27.23
2022-12-08T04:25:34.917Z,27.83
2022-12-08T04:28:02.509Z,30.40
2022-12-08T04:30:29.403Z,26.07
2022-12-08T04:32:56.312Z,29.80
2022-12-08T04:35:23.176Z,28.33
2022-12-08T04:37:50.080Z,23.50
2022-12-08T04:40:17.061Z,31.50
2022-12-08T04:42:43.980Z,34.83
2022-12-08T04:45:11.684Z,27.00
2022-12-08T04:47:38.582Z,32.83
2022-12-08T04:50:07.102Z,31.13
2022-12-08T04:52:34.322Z,35.60
2022-12-08T04:55:01.324Z,36.17
2022-12-08T04:57:28.332Z,35.23
2022-12-08T04:59:55.202Z,43.03
2022-12-08T05:02:22.605Z,38.07
2022-12-08T05:04:49.515Z,38.03
2022-12-08T05:07:16.433Z,38.50
2022-12-08T05:09:44.167Z,40.10
2022-12-08T05:12:11.830Z,35.93
2022-12-08T05:14:38.589Z,36.37
2022-12-08T05:17:09.501Z,41.00
2022-12-08T05:19:37.159Z,41.27
2022-12-08T05:22:03.816Z,45.30
2022-12-08T05:24:30.431Z,35.87
2022-12-08T05:26:57.492Z,37.53
2022-12-08T05:29:24.393Z,41.13
2022-12-08T05:31:51.515Z,37.87
2022-12-08T05:34:18.440Z,44.40
2022-12-08T05:36:45.689Z,42.97
2022-12-08T05:39:12.843Z,50.70
2022-12-08T05:41:39.905Z,45.33
2022-12-08T05:44:06.778Z,47.43
2022-12-08T05:46:34.080Z,39.97
2022-12-08T05:49:01.249Z,44.97
2022-12-08T05:51:28.594Z,36.07
2022-12-08T05:53:56.856Z,49.23
2022-12-08T05:56:23.988Z,44.97
2022-12-08T05:58:50.996Z,54.67
2022-12-08T06:01:22.768Z,52.17
2022-12-08T06:03:49.667Z,45.03
2022-12-08T06:06:16.699Z,47.93
2022-12-08T06:08:43.597Z,48.50
2022-12-08T06:11:16.736Z,48.83
2022-12-08T06:13:43.694Z,56.60
2022-12-08T06:16:10.603Z,53.00
2022-12-08T06:18:37.542Z,45.77
2022-12-08T06:21:05.223Z,51.90
2022-12-08T06:23:32.266Z,63.37
2022-12-08T06:26:01.617Z,56.13
2022-12-08T06:28:29.170Z,51.53
2022-12-08T06:30:56.178Z,51.37
2022-12-08T06:33:23.187Z,49.10
2022-12-08T06:35:50.110Z,56.20
2022-12-08T06:38:16.709Z,53.73
2022-12-08T06:40:43.620Z,53.10
2022-12-08T06:43:10.526Z,52.97
2022-12-08T06:45:40.644Z,45.60
2022-12-08T06:48:07.386Z,44.87
2022-12-08T06:50:34.736Z,48.10
2022-12-08T06:53:05.500Z,48.60
2022-12-08T06:58:20.428Z,46.73
2022-12-08T07:00:47.839Z,44.37
2022-12-08T07:03:15.167Z,57.73
2022-12-08T07:05:42.066Z,44.80
2022-12-08T07:08:09.282Z,53.67
2022-12-08T07:10:36.514Z,44.73
2022-12-08T07:13:03.581Z,45.53
2022-12-08T07:15:30.587Z,43.13
2022-12-08T07:18:00.054Z,44.67
2022-12-08T07:20:27.558Z,48.37
2022-12-08T07:22:54.514Z,45.37
2022-12-08T07:25:21.415Z,50.23
2022-12-08T07:27:50.478Z,47.20
2022-12-08T07:30:17.362Z,47.10
2022-12-08T07:32:44.218Z,43.87
2022-12-08T07:35:11.800Z,34.83
2022-12-08T07:37:38.922Z,49.40
2022-12-08T07:40:07.320Z,45.40
2022-12-08T07:42:34.463Z,43.77
2022-12-08T07:45:01.587Z,56.87
2022-12-08T07:47:28.457Z,38.97
2022-12-08T07:49:55.315Z,48.87
2022-12-08T07:52:22.959Z,38.27
2022-12-08T07:54:49.872Z,35.97
2022-12-08T07:57:17.160Z,40.27
2022-12-08T07:59:44.105Z,35.27
2022-12-08T08:02:25.590Z,34.17
2022-12-08T08:04:53.551Z,38.07
2022-12-08T08:07:20.634Z,28.97
2022-12-08T08:09:47.875Z,24.43
2022-12-08T08:12:30.824Z,28.73
2022-12-08T08:14:58.677Z,27.87
2022-12-08T08:17:25.714Z,24.40
2022-12-08T08:19:52.728Z,26.23
2022-12-08T08:22:19.649Z,29.10
2022-12-08T08:24:46.701Z,33.57
2022-12-08T08:27:14.000Z,33.53
2022-12-08T08:29:41.131Z,39.47
2022-12-08T08:32:08.065Z,36.10
2022-12-08T08:34:35.122Z,38.93
2022-12-08T08:37:01.749Z,41.33
2022-12-08T08:39:31.078Z,36.37
2022-12-08T08:41:57.987Z,30.43
2022-12-08T08:44:25.429Z,53.83
2022-12-08T08:46:52.465Z,43.77
2022-12-08T08:49:19.530Z,44.67
2022-12-08T08:51:46.579Z,30.60
2022-12-08T08:54:13.951Z,41.27
2022-12-08T08:56:40.882Z,44.20
2022-12-08T08:59:07.801Z,35.47
2022-12-08T09:01:38.120Z,33.93
2022-12-08T09:04:05.288Z,38.50
2022-12-08T09:06:32.264Z,40.13
2022-12-08T09:08:59.453Z,35.10
2022-12-08T09:11:27.471Z,40.60
2022-12-08T09:13:55.125Z,41.90
2022-12-08T09:16:22.631Z,34.43
2022-12-08T09:18:50.148Z,40.37
2022-12-08T09:21:19.637Z,43.03
2022-12-08T09:23:46.612Z,39.90
2022-12-08T09:26:13.559Z,42.70
2022-12-08T09:28:45.525Z,42.73
2022-12-08T09:31:13.262Z,35.40
2022-12-08T09:33:40.458Z,34.40
2022-12-08T09:36:08.694Z,34.63
2022-12-08T09:38:35.790Z,48.03
2022-12-08T09:41:04.017Z,46.63
2022-12-08T09:43:56.273Z,54.93
2022-12-08T09:46:25.965Z,45.97
2022-12-08T09:48:57.111Z,47.77
2022-12-08T09:51:25.904Z,39.87
2022-12-08T09:53:56.077Z,55.93
2022-12-08T09:56:24.520Z,46.73
2022-12-08T09:58:54.970Z,33.10
2022-12-08T10:01:23.895Z,34.93
2022-12-08T10:03:51.004Z,37.00
2022-12-08T10:06:24.542Z,39.90
2022-12-08T10:09:02.576Z,37.83
2022-12-08T10:11:36.450Z,47.57
2022-12-08T10:14:13.071Z,31.17
2022-12-08T10:16:41.960Z,34.50
2022-12-08T10:19:14.438Z,43.60
2022-12-08T10:21:41.547Z,41.77
2022-12-08T10:24:15.814Z,43.13
2022-12-08T10:26:47.032Z,36.60
2022-12-08T10:29:14.319Z,40.93
2022-12-08T10:31:41.575Z,37.33
2022-12-08T10:34:16.676Z,36.73
2022-12-08T10:36:48.846Z,39.33
2022-12-08T10:39:34.920Z,38.50
2022-12-08T10:42:06.676Z,43.00
2022-12-08T10:44:33.665Z,42.40
2022-12-08T10:47:00.936Z,42.47
2022-12-08T10:49:31.645Z,28.73
2022-12-08T10:51:58.754Z,26.87
2022-12-08T10:54:28.407Z,37.17
2022-12-08T10:56:56.801Z,28.37
2022-12-08T10:59:24.925Z,21.77
2022-12-08T11:01:53.630Z,31.50
2022-12-08T11:04:23.450Z,37.10
2022-12-08T11:06:51.517Z,37.23
2022-12-08T11:09:43.137Z,30.83
2022-12-08T11:12:14.033Z,30.60
2022-12-08T11:14:48.496Z,33.63
2022-12-08T11:17:17.374Z,25.20
2022-12-08T11:19:56.196Z,27.27
2022-12-08T11:22:25.228Z,29.20
2022-12-08T11:25:01.074Z,33.00
2022-12-08T11:27:28.665Z,33.87
2022-12-08T11:29:55.695Z,32.43
2022-12-08T11:32:22.950Z,30.90
2022-12-08T11:34:55.158Z,29.57
2022-12-08T11:37:32.826Z,32.50
2022-12-08T11:40:06.857Z,42.47
2022-12-08T11:42:41.076Z,36.93
2022-12-08T11:45:14.625Z,32.50
2022-12-08T11:47:48.976Z,29.60
2022-12-08T11:50:23.418Z,26.43
2022-12-08T11:52:51.419Z,32.83
2022-12-08T11:55:35.256Z,18.13
2022-12-08T11:58:16.740Z,31.67
2022-12-08T12:00:43.922Z,38.30
2022-12-08T12:03:20.193Z,31.17
2022-12-08T12:09:00.318Z,35.47
2022-12-08T12:11:56.097Z,37.47
2022-12-08T12:14:40.973Z,29.23
2022-12-08T12:17:23.175Z,36.20
2022-12-08T12:19:51.225Z,28.67
2022-12-08T12:22:21.365Z,31.97
2022-12-08T12:24:51.515Z,31.43
2022-12-08T12:27:27.009Z,30.80
2022-12-08T12:29:58.636Z,24.07
2022-12-08T12:32:27.357Z,32.27
2022-12-08T12:34:57.172Z,27.13
2022-12-08T12:37:25.670Z,21.17
2022-12-08T12:39:58.357Z,23.10
2022-12-08T12:42:42.345Z,27.83
2022-12-08T12:45:25.857Z,16.23
2022-12-08T12:48:15.515Z,27.87
2022-12-08T12:50:44.287Z,25.03
2022-12-08T12:53:44.588Z,28.87
2022-12-08T12:56:12.147Z,24.33
2022-12-08T12:58:42.202Z,25.30
2022-12-08T13:01:45.389Z,17.40
2022-12-08T13:04:12.512Z,30.40
2022-12-08T13:06:42.788Z,27.93
2022-12-08T13:09:26.472Z,25.57
2022-12-08T13:11:55.496Z,33.63
2022-12-08T13:14:33.175Z,31.07
2022-12-08T13:17:05.361Z,25.77
2022-12-08T13:19:35.370Z,35.83
2022-12-08T13:22:02.267Z,31.23
2022-12-08T13:24:33.075Z,30.67
2022-12-08T13:27:29.019Z,25.03
2022-12-08T13:30:28.797Z,26.80
2022-12-08T13:35:50.166Z,29.33
2022-12-08T13:38:20.731Z,32.07
2022-12-08T13:40:47.774Z,30.00
2022-12-08T13:43:19.938Z,29.23
2022-12-08T13:46:52.506Z,33.17
2022-12-08T13:55:12.954Z,30.93
2022-12-08T13:57:26.600Z,42.13
2022-12-08T13:59:53.672Z,34.97
2022-12-08T14:02:26.758Z,31.13
2022-12-08T14:07:42.753Z,27.57
2022-12-08T14:10:13.954Z,26.00
2022-12-08T14:12:45.431Z,31.47
2022-12-08T14:15:14.651Z,32.37
2022-12-08T14:17:42.085Z,32.73
2022-12-08T14:20:22.106Z,27.70
2022-12-08T14:22:49.774Z,34.83
2022-12-08T14:25:17.695Z,22.63
2022-12-08T14:27:45.320Z,22.03
2022-12-08T14:30:19.875Z,22.33
2022-12-08T14:32:48.837Z,25.37
2022-12-08T14:35:22.600Z,28.43
2022-12-08T14:37:51.007Z,29.17
2022-12-08T14:40:23.497Z,21.40
2022-12-08T14:42:52.248Z,28.50
2022-12-08T14:45:19.491Z,24.93
2022-12-08T14:47:47.830Z,30.03
2022-12-08T14:50:38.647Z,29.70
2022-12-08T14:53:12.254Z,30.50
2022-12-08T14:55:39.352Z,34.17
2022-12-08T14:58:06.902Z,28.27
2022-12-08T15:00:33.948Z,17.13
2022-12-08T15:03:06.435Z,23.33
2022-12-08T15:05:33.566Z,33.97
2022-12-08T15:08:03.587Z,19.30
2022-12-08T15:10:32.587Z,20.27
2022-12-08T15:13:05.411Z,22.57
2022-12-08T15:15:45.594Z,25.20
2022-12-08T15:18:16.351Z,20.07
2022-12-08T15:20:45.268Z,22.53
2022-12-08T15:23:22.042Z,14.67
2022-12-08T15:25:49.262Z,19.27
2022-12-08T15:28:19.527Z,17.67
2022-12-08T15:30:46.676Z,20.10
2022-12-08T15:33:13.412Z,16.13
2022-12-08T15:35:41.143Z,18.97
2022-12-08T15:38:17.284Z,17.97
2022-12-08T15:40:44.842Z,20.40
2022-12-08T15:43:11.765Z,19.83
2022-12-08T15:45:43.856Z,20.27
2022-12-08T15:48:20.805Z,19.57
2022-12-08T15:50:47.806Z,20.80
2022-12-08T15:53:14.945Z,21.73
2022-12-08T15:55:57.843Z,19.43
2022-12-08T15:58:53.618Z,17.17
2022-12-08T16:01:17.416Z,20.30
2022-12-08T16:04:36.833Z,20.33
2022-12-08T16:09:20.528Z,21.13
2022-12-08T16:12:08.277Z,21.43
2022-12-08T16:17:25.801Z,21.70
2022-12-08T16:19:52.727Z,28.77
2022-12-08T16:25:18.247Z,23.77
2022-12-08T16:28:17.340Z,21.53
2022-12-08T16:30:34.463Z,19.43
2022-12-08T16:33:01.152Z,24.70
2022-12-08T16:35:28.077Z,31.07
2022-12-08T16:37:55.036Z,30.83
2022-12-08T16:40:22.033Z,23.10
2022-12-08T16:42:49.965Z,23.43
2022-12-08T16:45:18.745Z,27.03
2022-12-08T16:47:47.381Z,18.37
2022-12-08T16:50:16.414Z,28.50
2022-12-08T16:52:43.339Z,23.90
2022-12-08T16:55:11.345Z,21.23
2022-12-08T16:57:38.375Z,23.87
2022-12-08T17:00:08.313Z,25.77
2022-12-08T17:02:35.460Z,25.80
2022-12-08T17:05:03.661Z,22.30
2022-12-08T17:07:30.811Z,23.57
2022-12-08T17:09:58.073Z,21.13
2022-12-08T17:12:25.113Z,21.73
2022-12-08T17:14:52.117Z,16.77
2022-12-08T17:17:19.094Z,25.13
2022-12-08T17:19:46.184Z,21.90
2022-12-08T17:22:13.767Z,24.27
2022-12-08T17:24:40.816Z,23.80
2022-12-08T17:27:07.703Z,23.63
2022-12-08T17:29:34.725Z,21.47
2022-12-08T17:32:01.837Z,25.17
2022-12-08T17:34:28.987Z,51.60
2022-12-08T17:36:56.589Z,28.00
2022-12-08T17:39:24.604Z,26.53
2022-12-08T17:41:51.613Z,29.93
2022-12-08T17:44:19.984Z,25.43
2022-12-08T17:46:52.710Z,30.50
2022-12-08T17:49:22.699Z,27.10
2022-12-08T17:51:50.667Z,25.17
2022-12-08T17:54:18.588Z,29.27
2022-12-08T17:56:46.636Z,29.87
2022-12-08T17:59:15.223Z,27.90
2022-12-08T18:01:43.241Z,28.67
2022-12-08T18:04:11.080Z,25.77
2022-12-08T18:06:42.707Z,32.80
2022-12-08T18:09:09.830Z,39.10
2022-12-08T18:11:36.963Z,35.53
2022-12-08T18:14:08.804Z,39.17
2022-12-08T18:16:37.119Z,34.47
2022-12-08T18:19:04.126Z,40.37
2022-12-08T18:21:31.337Z,46.87
2022-12-08T18:23:58.325Z,40.17
2022-12-08T18:26:25.422Z,35.03
2022-12-08T18:28:52.343Z,43.83
2022-12-08T18:31:21.696Z,37.20
2022-12-08T18:33:49.119Z,31.77
2022-12-08T18:36:17.419Z,41.47
2022-12-08T18:38:44.450Z,46.17
2022-12-08T18:41:13.778Z,35.20
2022-12-08T18:43:40.969Z,28.90
2022-12-08T18:46:10.522Z,39.60
2022-12-08T18:48:39.748Z,53.70
2022-12-08T18:51:10.613Z,38.67
2022-12-08T18:53:37.778Z,41.60
2022-12-08T18:56:05.400Z,48.03
2022-12-08T18:58:32.276Z,40.13
2022-12-08T19:00:59.289Z,39.37
2022-12-08T19:03:26.899Z,58.50
2022-12-08T19:06:02.989Z,48.07
2022-12-08T19:08:31.639Z,35.90
2022-12-08T19:10:58.938Z,41.33
2022-12-08T19:13:26.534Z,37.57
2022-12-08T19:15:53.497Z,32.60
2022-12-08T19:18:20.548Z,30.90
2022-12-08T19:20:47.577Z,29.53
2022-12-08T19:23:15.479Z,32.87
2022-12-08T19:25:42.659Z,30.60
2022-12-08T19:28:10.181Z,28.53
2022-12-08T19:30:37.134Z,26.90
2022-12-08T19:33:04.267Z,28.97
2022-12-08T19:35:31.401Z,22.93
2022-12-08T19:37:58.852Z,19.37
2022-12-08T19:40:45.065Z,26.67
2022-12-08T19:43:34.243Z,26.83
2022-12-08T19:46:01.321Z,20.83
2022-12-08T19:48:28.788Z,22.00
2022-12-08T19:50:55.719Z,22.93
2022-12-08T19:53:23.835Z,25.67
2022-12-08T19:55:52.067Z,17.60
2022-12-08T19:58:19.272Z,23.13
2022-12-08T20:00:46.585Z,19.47
2022-12-08T20:03:14.845Z,15.90
2022-12-08T20:05:42.328Z,15.53
2022-12-08T20:08:09.384Z,16.00
2022-12-08T20:10:38.431Z,18.97
2022-12-08T20:13:24.548Z,21.97
2022-12-08T20:15:51.731Z,16.43
2022-12-08T20:18:19.032Z,21.97
2022-12-08T20:20:46.720Z,20.50
2022-12-08T20:23:14.035Z,21.33
2022-12-08T20:25:42.846Z,18.80
2022-12-08T20:28:10.389Z,24.07
2022-12-08T20:30:38.809Z,20.17
2022-12-08T20:33:05.768Z,17.17
2022-12-08T20:35:32.776Z,17.57
2022-12-08T20:37:59.692Z,22.60
2022-12-08T20:40:26.951Z,31.37
2022-12-08T20:42:53.786Z,24.70
2022-12-08T20:45:21.105Z,18.43
2022-12-08T20:47:48.184Z,22.40
2022-12-08T20:50:15.514Z,17.00
2022-12-08T20:52:42.200Z,21.00
2022-12-08T20:55:09.951Z,26.63
2022-12-08T20:57:37.394Z,24.80
2022-12-08T21:00:05.565Z,20.17
2022-12-08T21:02:33.717Z,23.27
2022-12-08T21:05:01.003Z,16.80
2022-12-08T21:07:28.217Z,20.27
2022-12-08T21:09:56.952Z,18.33
2022-12-08T21:12:24.252Z,23.83
2022-12-08T21:14:51.501Z,19.40
2022-12-08T21:17:18.620Z,16.23
2022-12-08T21:19:45.956Z,19.60
2022-12-08T21:22:13.420Z,22.60
2022-12-08T21:24:40.375Z,24.13
2022-12-08T21:27:07.299Z,29.23
2022-12-08T21:29:34.328Z,15.53
2022-12-08T21:32:01.399Z,18.53
2022-12-08T21:34:30.828Z,21.90
2022-12-08T21:36:58.216Z,25.13
2022-12-08T21:39:25.232Z,22.77
2022-12-08T21:42:22.901Z,26.00
2022-12-08T21:44:50.326Z,25.23
2022-12-08T21:47:17.518Z,23.43
2022-12-08T21:49:44.736Z,21.33
2022-12-08T21:52:12.416Z,22.07
2022-12-08T21:54:39.600Z,30.33
2022-12-08T21:57:06.547Z,19.13
2022-12-08T21:59:33.457Z,20.50
2022-12-08T22:02:01.015Z,32.77
2022-12-08T22:04:28.170Z,25.80
2022-12-08T22:06:55.183Z,26.63
2022-12-08T22:09:22.935Z,23.07
2022-12-08T22:11:50.197Z,25.77
2022-12-08T22:14:17.168Z,27.47
2022-12-08T22:16:44.447Z,20.30
2022-12-08T22:19:20.332Z,22.57
2022-12-08T22:21:47.404Z,27.63
2022-12-08T22:24:14.494Z,24.30
2022-12-08T22:26:42.208Z,23.90
2022-12-08T22:29:09.213Z,24.43
2022-12-08T22:31:36.477Z,28.67
2022-12-08T22:34:03.513Z,28.07
2022-12-08T22:36:30.452Z,30.80
2022-12-08T22:38:57.757Z,25.23
2022-12-08T22:41:24.938Z,23.03
2022-12-08T22:43:52.336Z,31.00
2022-12-08T22:46:21.442Z,35.80
2022-12-08T22:48:48.761Z,34.33
2022-12-08T22:51:15.818Z,35.83
2022-12-08T22:53:43.196Z,25.10
2022-12-08T22:56:12.142Z,28.83
2022-12-08T22:58:40.270Z,30.83
2022-12-08T23:01:08.484Z,29.30
2022-12-08T23:03:35.603Z,29.10
2022-12-08T23:06:03.070Z,24.80
2022-12-08T23:08:30.252Z,30.90
2022-12-08T23:10:57.950Z,26.93
2022-12-08T23:13:24.968Z,28.40
2022-12-08T23:15:52.070Z,28.23
2022-12-08T23:18:19.639Z,26.83
2022-12-08T23:20:46.968Z,30.87
2022-12-08T23:23:14.214Z,27.37
2022-12-08T23:25:41.434Z,31.40
2022-12-08T23:28:08.780Z,32.50
2022-12-08T23:30:38.397Z,36.90
2022-12-08T23:33:05.616Z,27.70
2022-12-08T23:35:33.181Z,35.33
2022-12-08T23:38:00.338Z,40.17
2022-12-08T23:40:27.508Z,44.50
2022-12-08T23:42:54.439Z,64.23
2022-12-08T23:45:21.239Z,90.40
2022-12-08T23:47:48.444Z,66.03
2022-12-08T23:50:15.432Z,66.03
2022-12-08T23:52:43.034Z,56.37
2022-12-08T23:55:10.551Z,50.47
2022-12-08T23:57:38.781Z,46.13
